Terminal Aerodrome Forecast
Issued by NWS Nashville, TN

Home | Current Version | Previous Version | Text Only | Print | Product List | Glossary On
Versions: 1 2 3 4 5 6 7 8 9 10 11 12 13
196
FTUS44 KOHX 221120
TAFBNA
TAF
KBNA 221120Z 2212/2312 17007KT P6SM VCSH OVC090
     FM221300 15007KT 5SM -SHRA OVC040
     FM221600 14008KT 3SM -SHRA OVC013
     FM230000 17012G18KT P6SM OVC045
     FM230700 19012G17KT P6SM BKN018=

USA.gov is the U.S. government's official web portal to all federal, state and local government web resources and services.